Time;durP1;ratioP1;P1;durP2;ratioP2;P2;SDS_P1;SDS_P2;PMS_P1;PMS_P2;Temp;Humidity;BMP_temperature;BMP_pressure;BME280_temperature;BME280_humidity;BME280_pressure;Samples;Min_cycle;Max_cycle;Signal;HPM_P1;HPM_P2
2021/11/22 00:01:37;;;;;;;3.97;1.50;;;;;;;;;;5113321;28;20204;-74
2021/11/22 00:04:06;;;;;;;2.80;1.33;;;;;;;;;;5113525;28;20586;-74
2021/11/22 00:06:33;;;;;;;4.23;1.57;;;;;;;;;;5113443;28;20193;-74
2021/11/22 00:09:00;;;;;;;3.33;1.20;;;;;;;;;;5113351;28;20202;-74
2021/11/22 00:11:27;;;;;;;3.17;1.23;;;;;;;;;;5121832;27;20223;-74
2021/11/22 00:13:55;;;;;;;6.07;1.30;;;;;;;;;;5114814;27;20653;-75
2021/11/22 00:16:22;;;;;;;5.40;1.43;;;;;;;;;;5113520;28;20238;-74
2021/11/22 00:18:50;;;;;;;3.73;1.37;;;;;;;;;;5114553;27;20681;-74
2021/11/22 00:21:19;;;;;;;3.97;1.50;;;;;;;;;;5105058;28;20551;-74
2021/11/22 00:23:46;;;;;;;3.73;1.40;;;;;;;;;;5113079;28;20291;-74
2021/11/22 00:26:13;;;;;;;4.90;1.47;;;;;;;;;;5112886;27;20289;-74
2021/11/22 00:28:40;;;;;;;7.77;1.97;;;;;;;;;;5113391;27;20206;-74
2021/11/22 00:31:08;;;;;;;4.47;1.50;;;;;;;;;;5112309;28;20280;-74
2021/11/22 00:33:35;;;;;;;9.50;1.60;;;;;;;;;;5113347;28;20211;-74
2021/11/22 00:36:02;;;;;;;4.73;1.40;;;;;;;;;;5113127;28;20869;-75
2021/11/22 00:38:31;;;;;;;3.50;1.27;;;;;;;;;;5113194;28;20231;-74
2021/11/22 00:40:58;;;;;;;2.47;1.23;;;;;;;;;;5113081;27;20281;-74
2021/11/22 00:43:25;;;;;;;4.23;1.40;;;;;;;;;;5112229;28;20282;-74
2021/11/22 00:45:52;;;;;;;5.00;1.70;;;;;;;;;;5112402;28;20610;-74
2021/11/22 00:48:21;;;;;;;4.07;1.60;;;;;;;;;;5112339;28;20227;-74
2021/11/22 00:50:48;;;;;;;1.60;1.20;;;;;;;;;;5112308;28;20294;-75
2021/11/22 00:53:16;;;;;;;3.37;1.50;;;;;;;;;;5111425;28;20309;-75
2021/11/22 00:55:44;;;;;;;4.17;1.40;;;;;;;;;;5112754;28;20301;-75
2021/11/22 00:58:11;;;;;;;4.37;1.33;;;;;;;;;;5112091;28;20293;-75
2021/11/22 01:00:39;;;;;;;5.20;1.40;;;;;;;;;;5112587;28;20234;-75
2021/11/22 01:03:06;;;;;;;3.60;1.10;;;;;;;;;;5112990;28;20631;-75
2021/11/22 01:05:34;;;;;;;3.50;1.20;;;;;;;;;;5111267;28;20249;-75
2021/11/22 01:08:03;;;;;;;3.17;1.43;;;;;;;;;;5123162;27;20201;-74
2021/11/22 01:10:30;;;;;;;3.83;1.23;;;;;;;;;;5123797;27;20283;-75
2021/11/22 01:12:59;;;;;;;3.97;1.50;;;;;;;;;;5111141;27;20305;-75
2021/11/22 01:15:26;;;;;;;4.50;1.43;;;;;;;;;;5110964;28;20214;-75
2021/11/22 01:17:55;;;;;;;5.77;1.50;;;;;;;;;;5113386;27;20199;-75
2021/11/22 01:20:28;;;;;;;4.53;1.40;;;;;;;;;;5111772;28;20261;-75
2021/11/22 01:22:56;;;;;;;2.70;1.43;;;;;;;;;;5112474;28;20729;-74
2021/11/22 01:25:24;;;;;;;4.37;1.50;;;;;;;;;;5112405;28;20200;-75
2021/11/22 01:27:51;;;;;;;3.27;1.30;;;;;;;;;;5111929;28;20308;-75
2021/11/22 01:30:20;;;;;;;4.37;1.60;;;;;;;;;;5111884;28;20251;-75
2021/11/22 01:32:48;;;;;;;4.63;1.70;;;;;;;;;;5111463;27;20217;-75
2021/11/22 01:35:16;;;;;;;5.23;1.60;;;;;;;;;;5111600;28;20202;-75
2021/11/22 01:37:43;;;;;;;5.07;1.73;;;;;;;;;;5111307;28;20217;-75
2021/11/22 01:40:12;;;;;;;6.53;1.67;;;;;;;;;;5112155;28;20296;-75
2021/11/22 01:42:40;;;;;;;3.73;1.70;;;;;;;;;;5119431;27;20673;-74
2021/11/22 01:45:08;;;;;;;6.63;1.90;;;;;;;;;;5116677;27;20206;-75
2021/11/22 01:47:37;;;;;;;3.83;1.50;;;;;;;;;;5115108;27;20316;-75
2021/11/22 01:50:04;;;;;;;4.60;1.37;;;;;;;;;;5132000;27;20203;-75
2021/11/22 01:52:32;;;;;;;5.73;1.57;;;;;;;;;;5111387;27;20301;-76
2021/11/22 01:54:59;;;;;;;4.23;1.40;;;;;;;;;;5112017;28;20281;-75
2021/11/22 01:57:26;;;;;;;4.53;1.60;;;;;;;;;;5112007;28;20289;-74
2021/11/22 01:59:53;;;;;;;3.50;1.30;;;;;;;;;;5110703;28;20200;-74
2021/11/22 02:02:20;;;;;;;3.43;1.20;;;;;;;;;;5111308;28;20196;-75
2021/11/22 02:04:49;;;;;;;6.87;1.57;;;;;;;;;;5110126;28;20233;-75
2021/11/22 02:07:16;;;;;;;3.83;1.10;;;;;;;;;;5113432;28;20280;-75
2021/11/22 02:09:43;;;;;;;4.33;1.40;;;;;;;;;;5108937;28;20233;-75
2021/11/22 02:12:11;;;;;;;5.43;1.60;;;;;;;;;;5105280;28;20965;-75
2021/11/22 02:14:38;;;;;;;2.63;1.03;;;;;;;;;;5111104;28;20304;-74
2021/11/22 02:17:07;;;;;;;5.50;1.30;;;;;;;;;;5093011;28;20201;-75
2021/11/22 02:19:38;;;;;;;3.27;1.20;;;;;;;;;;5111808;28;20229;-75
2021/11/22 02:22:05;;;;;;;3.77;1.53;;;;;;;;;;5110929;28;20285;-75
2021/11/22 02:24:32;;;;;;;4.73;1.10;;;;;;;;;;5117760;28;20296;-75
2021/11/22 02:27:00;;;;;;;2.43;1.00;;;;;;;;;;5109618;28;20300;-75
2021/11/22 02:29:27;;;;;;;5.93;1.10;;;;;;;;;;5111331;28;20204;-74
2021/11/22 02:31:54;;;;;;;4.77;1.40;;;;;;;;;;5117427;28;20315;-74
2021/11/22 02:34:21;;;;;;;3.63;1.17;;;;;;;;;;5110628;28;20638;-75
2021/11/22 02:36:50;;;;;;;2.37;0.90;;;;;;;;;;5111216;28;20229;-75
2021/11/22 02:39:17;;;;;;;1.87;1.00;;;;;;;;;;5110861;28;20208;-75
2021/11/22 02:41:45;;;;;;;4.27;1.07;;;;;;;;;;5111103;28;20226;-74
2021/11/22 02:44:12;;;;;;;6.97;1.50;;;;;;;;;;5110040;28;20312;-75
2021/11/22 02:46:39;;;;;;;5.70;1.37;;;;;;;;;;5111393;28;20241;-74
2021/11/22 02:49:06;;;;;;;3.60;1.00;;;;;;;;;;5111190;28;20767;-75
2021/11/22 02:51:34;;;;;;;3.13;1.07;;;;;;;;;;5111365;28;20198;-74
2021/11/22 02:54:02;;;;;;;5.13;0.87;;;;;;;;;;5111241;28;20304;-74
2021/11/22 02:56:31;;;;;;;4.50;0.80;;;;;;;;;;5113184;28;20210;-74
2021/11/22 02:58:58;;;;;;;5.30;1.10;;;;;;;;;;5110635;28;20198;-74
2021/11/22 03:01:26;;;;;;;3.90;0.97;;;;;;;;;;5118644;28;20288;-74
2021/11/22 03:03:54;;;;;;;5.17;0.90;;;;;;;;;;5114750;28;20217;-75
2021/11/22 03:06:22;;;;;;;3.40;1.00;;;;;;;;;;5110688;28;20198;-74
2021/11/22 03:08:50;;;;;;;4.50;0.97;;;;;;;;;;5110940;28;20221;-75
2021/11/22 03:11:19;;;;;;;6.43;0.87;;;;;;;;;;5106617;28;20225;-75
2021/11/22 03:13:47;;;;;;;5.67;1.30;;;;;;;;;;5116063;28;20349;-74
2021/11/22 03:16:17;;;;;;;4.33;0.97;;;;;;;;;;5112814;28;20288;-74
2021/11/22 03:18:44;;;;;;;3.30;0.90;;;;;;;;;;5113855;28;20257;-75
2021/11/22 03:21:11;;;;;;;4.20;1.03;;;;;;;;;;5117785;27;20225;-74
2021/11/22 03:23:40;;;;;;;4.30;0.80;;;;;;;;;;5114150;28;20236;-75
2021/11/22 03:26:07;;;;;;;2.90;0.80;;;;;;;;;;5119152;27;20740;-75
2021/11/22 03:28:36;;;;;;;3.90;1.00;;;;;;;;;;5111468;28;20239;-74
2021/11/22 03:31:04;;;;;;;4.40;1.17;;;;;;;;;;5114194;28;20195;-75
2021/11/22 03:33:31;;;;;;;5.00;1.10;;;;;;;;;;5113614;27;20249;-74
2021/11/22 03:35:58;;;;;;;4.13;1.00;;;;;;;;;;5114027;28;20679;-74
2021/11/22 03:38:28;;;;;;;7.93;1.20;;;;;;;;;;5114445;27;20247;-74
2021/11/22 03:40:56;;;;;;;3.73;0.80;;;;;;;;;;5113162;27;20225;-74
2021/11/22 03:43:31;;;;;;;4.67;1.10;;;;;;;;;;5113644;28;20198;-74
2021/11/22 03:46:00;;;;;;;3.93;1.10;;;;;;;;;;5113082;28;20220;-75
2021/11/22 03:48:27;;;;;;;6.50;1.30;;;;;;;;;;5113303;27;20233;-75
2021/11/22 03:50:55;;;;;;;4.67;1.00;;;;;;;;;;5113498;28;20720;-75
2021/11/22 03:53:22;;;;;;;5.83;1.20;;;;;;;;;;5115631;27;20936;-75
2021/11/22 03:55:50;;;;;;;6.77;1.20;;;;;;;;;;5113466;28;20189;-75
2021/11/22 03:58:17;;;;;;;6.97;1.23;;;;;;;;;;5114096;28;20204;-75
2021/11/22 04:00:44;;;;;;;3.77;1.03;;;;;;;;;;5114899;27;20289;-74
2021/11/22 04:03:13;;;;;;;7.00;1.10;;;;;;;;;;5113885;28;20614;-74
2021/11/22 04:05:40;;;;;;;5.23;1.13;;;;;;;;;;5119122;27;20201;-75
2021/11/22 04:08:08;;;;;;;5.47;1.00;;;;;;;;;;5113160;28;20281;-74
2021/11/22 04:10:36;;;;;;;5.30;1.27;;;;;;;;;;5113190;27;20201;-74
2021/11/22 04:13:03;;;;;;;5.60;1.07;;;;;;;;;;5115981;27;20230;-75
2021/11/22 04:15:30;;;;;;;5.63;1.17;;;;;;;;;;5112894;28;20308;-74
2021/11/22 04:17:58;;;;;;;6.77;1.20;;;;;;;;;;5112704;28;20258;-75
2021/11/22 04:20:27;;;;;;;5.13;1.00;;;;;;;;;;5113216;28;20280;-74
2021/11/22 04:22:54;;;;;;;4.20;1.33;;;;;;;;;;5115135;27;20205;-75
2021/11/22 04:25:21;;;;;;;6.40;1.47;;;;;;;;;;5113020;28;20276;-75
2021/11/22 04:27:49;;;;;;;5.07;1.20;;;;;;;;;;5118699;27;20221;-74
2021/11/22 04:30:16;;;;;;;5.67;1.30;;;;;;;;;;5112696;28;20285;-74
2021/11/22 04:32:44;;;;;;;5.53;1.07;;;;;;;;;;5113115;28;20310;-74
2021/11/22 04:35:12;;;;;;;4.17;1.13;;;;;;;;;;5112492;27;20240;-75
2021/11/22 04:37:40;;;;;;;5.03;1.10;;;;;;;;;;5113372;27;20235;-75
2021/11/22 04:40:09;;;;;;;6.73;1.23;;;;;;;;;;5112672;27;20285;-75
2021/11/22 04:42:37;;;;;;;5.67;1.13;;;;;;;;;;5119898;27;20277;-74
2021/11/22 04:45:04;;;;;;;4.23;1.10;;;;;;;;;;5112508;27;20205;-75
2021/11/22 04:47:31;;;;;;;4.13;1.03;;;;;;;;;;5111589;28;20300;-74
2021/11/22 04:49:59;;;;;;;6.27;1.03;;;;;;;;;;5113282;27;20637;-74
2021/11/22 04:52:26;;;;;;;4.80;1.27;;;;;;;;;;5111574;28;20236;-75
2021/11/22 04:54:54;;;;;;;2.97;1.00;;;;;;;;;;5112447;28;20280;-74
2021/11/22 04:57:21;;;;;;;3.80;1.07;;;;;;;;;;5112133;28;20206;-74
2021/11/22 04:59:49;;;;;;;9.00;1.00;;;;;;;;;;5114932;27;20285;-75
2021/11/22 05:02:16;;;;;;;4.00;1.00;;;;;;;;;;5108419;27;20290;-74
2021/11/22 05:04:43;;;;;;;7.30;1.37;;;;;;;;;;5112123;28;20193;-75
2021/11/22 05:07:10;;;;;;;5.20;1.30;;;;;;;;;;5111450;28;20284;-75
2021/11/22 05:09:37;;;;;;;5.47;1.37;;;;;;;;;;5110729;28;20737;-74
2021/11/22 05:12:07;;;;;;;8.03;1.50;;;;;;;;;;5111862;28;20252;-75
2021/11/22 05:14:34;;;;;;;7.30;1.50;;;;;;;;;;5111823;27;20309;-74
2021/11/22 05:17:01;;;;;;;3.97;0.90;;;;;;;;;;5112206;28;20288;-74
2021/11/22 05:19:32;;;;;;;5.73;1.30;;;;;;;;;;5111160;28;20233;-75
2021/11/22 05:21:59;;;;;;;5.00;1.10;;;;;;;;;;5111816;28;20258;-74
2021/11/22 05:24:26;;;;;;;6.77;1.40;;;;;;;;;;5111604;28;20280;-75
2021/11/22 05:26:53;;;;;;;5.50;1.10;;;;;;;;;;5111146;28;20289;-74
2021/11/22 05:29:22;;;;;;;6.07;1.70;;;;;;;;;;5113885;27;20284;-74
2021/11/22 05:31:49;;;;;;;7.13;1.23;;;;;;;;;;5112509;27;20272;-74
2021/11/22 05:34:18;;;;;;;5.03;1.43;;;;;;;;;;5127122;27;20869;-74
2021/11/22 05:36:45;;;;;;;5.80;1.20;;;;;;;;;;5111687;27;20692;-75
2021/11/22 05:39:12;;;;;;;8.30;1.33;;;;;;;;;;5111550;28;20297;-74
2021/11/22 05:41:40;;;;;;;7.63;1.30;;;;;;;;;;5111630;28;20292;-74
2021/11/22 05:44:07;;;;;;;7.97;1.50;;;;;;;;;;5111079;27;20548;-74
2021/11/22 05:46:36;;;;;;;6.33;1.30;;;;;;;;;;5110668;28;20244;-74
2021/11/22 05:49:03;;;;;;;5.70;1.10;;;;;;;;;;5111536;28;20248;-74
2021/11/22 05:51:30;;;;;;;8.60;1.43;;;;;;;;;;5114415;27;20192;-74
2021/11/22 05:53:59;;;;;;;5.83;1.63;;;;;;;;;;5112468;27;20690;-75
2021/11/22 05:56:26;;;;;;;5.23;0.90;;;;;;;;;;5111594;28;20744;-75
2021/11/22 05:58:54;;;;;;;10.77;1.10;;;;;;;;;;5111208;28;20226;-75
2021/11/22 06:01:21;;;;;;;4.53;0.90;;;;;;;;;;5118857;27;20246;-75
2021/11/22 06:03:50;;;;;;;6.13;1.10;;;;;;;;;;5111116;28;20224;-74
2021/11/22 06:06:17;;;;;;;3.70;0.93;;;;;;;;;;5110747;28;20347;-75
2021/11/22 06:08:44;;;;;;;7.27;1.10;;;;;;;;;;5111643;28;20875;-75
2021/11/22 06:11:11;;;;;;;9.70;1.43;;;;;;;;;;5115361;28;20292;-76
2021/11/22 06:13:39;;;;;;;6.37;1.57;;;;;;;;;;5114676;28;20224;-75
2021/11/22 06:16:06;;;;;;;6.97;1.20;;;;;;;;;;5112824;28;20592;-75
2021/11/22 06:18:33;;;;;;;2.73;1.07;;;;;;;;;;5111032;28;20313;-76
2021/11/22 06:21:02;;;;;;;4.30;1.00;;;;;;;;;;5111267;28;20284;-75
2021/11/22 06:23:29;;;;;;;8.43;1.10;;;;;;;;;;5109332;28;20233;-76
2021/11/22 06:25:56;;;;;;;7.33;1.20;;;;;;;;;;5104759;28;20205;-77
2021/11/22 06:28:25;;;;;;;5.83;1.43;;;;;;;;;;5106413;28;20598;-75
2021/11/22 06:30:52;;;;;;;5.33;1.17;;;;;;;;;;5109661;28;20259;-76
2021/11/22 06:33:19;;;;;;;10.03;1.47;;;;;;;;;;5108808;28;20249;-76
2021/11/22 06:35:47;;;;;;;5.87;1.17;;;;;;;;;;5109488;28;20277;-76
2021/11/22 06:38:15;;;;;;;6.07;1.10;;;;;;;;;;5106666;28;20202;-76
2021/11/22 06:40:43;;;;;;;5.93;1.13;;;;;;;;;;5108750;28;20288;-74
2021/11/22 06:43:11;;;;;;;4.60;1.03;;;;;;;;;;5111071;28;20226;-75
2021/11/22 06:45:38;;;;;;;9.67;1.57;;;;;;;;;;5111307;28;20288;-76
2021/11/22 06:48:06;;;;;;;8.23;1.30;;;;;;;;;;5116500;28;20288;-76
2021/11/22 06:50:33;;;;;;;6.63;1.00;;;;;;;;;;5130896;27;20197;-76
2021/11/22 06:53:02;;;;;;;5.70;1.53;;;;;;;;;;5113466;28;20289;-75
2021/11/22 06:55:30;;;;;;;6.23;1.03;;;;;;;;;;5114425;28;20324;-76
2021/11/22 06:57:58;;;;;;;7.47;1.00;;;;;;;;;;5114888;28;20201;-76
2021/11/22 07:00:25;;;;;;;8.73;1.20;;;;;;;;;;5115145;28;20204;-76
2021/11/22 07:02:52;;;;;;;5.30;1.40;;;;;;;;;;5114533;28;20301;-76
2021/11/22 07:05:20;;;;;;;4.73;1.00;;;;;;;;;;5115443;28;20200;-76
2021/11/22 07:07:47;;;;;;;5.03;1.37;;;;;;;;;;5114859;28;20236;-76
2021/11/22 07:10:14;;;;;;;6.87;1.37;;;;;;;;;;5114665;28;20607;-76
2021/11/22 07:12:43;;;;;;;5.83;1.20;;;;;;;;;;5115083;28;20307;-76
2021/11/22 07:15:16;;;;;;;3.07;1.13;;;;;;;;;;5114470;28;20332;-76
2021/11/22 07:17:43;;;;;;;6.30;0.97;;;;;;;;;;5114724;28;20215;-76
2021/11/22 07:20:11;;;;;;;3.73;1.10;;;;;;;;;;5114531;28;20264;-75
2021/11/22 07:22:38;;;;;;;4.53;1.00;;;;;;;;;;5115089;28;20291;-76
2021/11/22 07:25:05;;;;;;;4.20;1.10;;;;;;;;;;5114749;28;20285;-76
2021/11/22 07:27:33;;;;;;;2.47;1.00;;;;;;;;;;5114949;28;20721;-76
2021/11/22 07:30:01;;;;;;;4.90;1.00;;;;;;;;;;5114571;28;20288;-76
2021/11/22 07:32:29;;;;;;;12.30;1.23;;;;;;;;;;5114835;28;20611;-76
2021/11/22 07:34:56;;;;;;;7.53;1.17;;;;;;;;;;5114665;28;20247;-76
2021/11/22 07:37:24;;;;;;;4.27;0.93;;;;;;;;;;5114742;28;20720;-75
2021/11/22 07:39:51;;;;;;;6.47;1.00;;;;;;;;;;5114625;28;20284;-75
2021/11/22 07:42:18;;;;;;;6.07;1.10;;;;;;;;;;5114582;28;20240;-76
2021/11/22 07:44:45;;;;;;;7.97;0.90;;;;;;;;;;5114449;28;20295;-76
2021/11/22 07:47:14;;;;;;;5.77;0.87;;;;;;;;;;5113995;28;20216;-76
2021/11/22 07:49:42;;;;;;;5.90;1.30;;;;;;;;;;5114728;28;20296;-75
2021/11/22 07:52:09;;;;;;;5.20;0.87;;;;;;;;;;5113991;28;20196;-76
2021/11/22 07:54:36;;;;;;;4.43;0.80;;;;;;;;;;5114373;28;20220;-75
2021/11/22 07:57:04;;;;;;;6.53;1.30;;;;;;;;;;5114261;28;20229;-76
2021/11/22 07:59:31;;;;;;;3.77;0.90;;;;;;;;;;5121202;27;20203;-75
2021/11/22 08:02:00;;;;;;;4.33;0.80;;;;;;;;;;5134400;27;20292;-76
2021/11/22 08:04:29;;;;;;;4.80;0.80;;;;;;;;;;5134667;27;20196;-76
2021/11/22 08:07:00;;;;;;;4.57;0.77;;;;;;;;;;5126237;27;20285;-76
2021/11/22 08:09:30;;;;;;;4.80;0.77;;;;;;;;;;5113404;28;20207;-75
2021/11/22 08:12:14;;;;;;;4.87;0.70;;;;;;;;;;5113878;28;20205;-76
2021/11/22 08:14:41;;;;;;;3.63;0.77;;;;;;;;;;5113735;28;20225;-76
2021/11/22 08:17:09;;;;;;;5.00;0.90;;;;;;;;;;5113861;28;20201;-75
2021/11/22 08:19:37;;;;;;;3.67;0.97;;;;;;;;;;5113492;28;20791;-75
2021/11/22 08:22:06;;;;;;;4.87;1.00;;;;;;;;;;5113442;28;20221;-76
2021/11/22 08:24:33;;;;;;;4.97;1.00;;;;;;;;;;5113485;28;20247;-76
2021/11/22 08:27:00;;;;;;;5.27;1.13;;;;;;;;;;5113875;28;20293;-76
2021/11/22 08:29:27;;;;;;;2.53;0.90;;;;;;;;;;5113074;28;20205;-76
2021/11/22 08:31:55;;;;;;;2.43;0.70;;;;;;;;;;5113518;28;20756;-76
2021/11/22 08:34:22;;;;;;;3.13;0.97;;;;;;;;;;5112826;28;20309;-76
2021/11/22 08:36:50;;;;;;;3.70;1.53;;;;;;;;;;5113698;28;20193;-76
2021/11/22 08:39:18;;;;;;;2.87;0.80;;;;;;;;;;5113326;28;20208;-76
2021/11/22 08:41:45;;;;;;;3.50;0.70;;;;;;;;;;5113518;28;20621;-75
2021/11/22 08:44:12;;;;;;;3.37;0.80;;;;;;;;;;5113027;28;20194;-75
2021/11/22 08:46:40;;;;;;;4.00;0.70;;;;;;;;;;5113093;28;20288;-76
2021/11/22 08:49:08;;;;;;;3.70;0.80;;;;;;;;;;5113140;28;20198;-75
2021/11/22 08:51:35;;;;;;;2.23;0.70;;;;;;;;;;5112608;28;20202;-75
2021/11/22 08:54:04;;;;;;;4.30;0.80;;;;;;;;;;5113087;28;20310;-75
2021/11/22 08:56:31;;;;;;;2.33;0.90;;;;;;;;;;5112864;28;20229;-75
2021/11/22 08:58:58;;;;;;;3.17;0.90;;;;;;;;;;5112971;28;20257;-75
2021/11/22 09:01:25;;;;;;;5.60;0.90;;;;;;;;;;5112635;28;20279;-75
2021/11/22 09:03:52;;;;;;;3.10;0.80;;;;;;;;;;5113081;28;20193;-75
2021/11/22 09:06:20;;;;;;;3.53;0.80;;;;;;;;;;5112482;28;20289;-75
2021/11/22 09:08:47;;;;;;;4.27;0.90;;;;;;;;;;5112654;28;20697;-75
2021/11/22 09:11:16;;;;;;;2.90;0.80;;;;;;;;;;5113051;28;20289;-75
2021/11/22 09:13:44;;;;;;;4.03;0.80;;;;;;;;;;5111817;28;20624;-75
2021/11/22 09:16:11;;;;;;;4.17;0.70;;;;;;;;;;5112618;28;20261;-75
2021/11/22 09:18:39;;;;;;;3.83;0.87;;;;;;;;;;5112165;28;20225;-75
2021/11/22 09:21:06;;;;;;;1.60;0.60;;;;;;;;;;5112749;28;20284;-75
2021/11/22 09:23:33;;;;;;;2.40;0.90;;;;;;;;;;5112048;28;20289;-75
2021/11/22 09:26:01;;;;;;;2.23;0.73;;;;;;;;;;5112593;28;20224;-75
2021/11/22 09:28:29;;;;;;;2.50;0.90;;;;;;;;;;5112082;28;20293;-75
2021/11/22 09:30:57;;;;;;;3.47;0.70;;;;;;;;;;5112595;28;20296;-75
2021/11/22 09:33:24;;;;;;;4.53;0.60;;;;;;;;;;5112605;28;20289;-75
2021/11/22 09:35:51;;;;;;;2.60;0.57;;;;;;;;;;5112350;28;20313;-75
2021/11/22 09:38:18;;;;;;;2.77;0.50;;;;;;;;;;5112447;28;20284;-75
2021/11/22 09:40:45;;;;;;;3.60;0.80;;;;;;;;;;5111658;28;20719;-75
2021/11/22 09:43:12;;;;;;;2.73;0.80;;;;;;;;;;5112205;28;20293;-75
2021/11/22 09:45:41;;;;;;;2.67;0.70;;;;;;;;;;5112338;28;20280;-75
2021/11/22 09:48:09;;;;;;;2.60;0.67;;;;;;;;;;5112179;28;20645;-75
2021/11/22 09:50:36;;;;;;;2.13;0.70;;;;;;;;;;5112165;28;20248;-75
2021/11/22 09:53:04;;;;;;;2.23;0.77;;;;;;;;;;5112160;28;20695;-75
2021/11/22 09:55:31;;;;;;;2.20;0.60;;;;;;;;;;5111491;28;20687;-75
2021/11/22 09:57:59;;;;;;;2.73;0.73;;;;;;;;;;5111315;28;20202;-75
2021/11/22 10:00:33;;;;;;;2.53;0.60;;;;;;;;;;5112048;28;20233;-75
2021/11/22 10:03:02;;;;;;;4.53;0.80;;;;;;;;;;5111597;28;20284;-75
2021/11/22 10:05:31;;;;;;;2.47;0.60;;;;;;;;;;5112442;28;20281;-75
2021/11/22 10:08:06;;;;;;;1.87;0.73;;;;;;;;;;5111941;28;20201;-75
2021/11/22 10:10:34;;;;;;;3.57;0.70;;;;;;;;;;5112027;28;20193;-78
2021/11/22 10:13:03;;;;;;;4.90;0.70;;;;;;;;;;5112374;28;20288;-78
2021/11/22 10:15:32;;;;;;;1.43;0.47;;;;;;;;;;5111822;28;20611;-78
2021/11/22 10:18:00;;;;;;;3.00;1.00;;;;;;;;;;5112023;28;20288;-78
2021/11/22 10:20:31;;;;;;;3.17;0.50;;;;;;;;;;5111885;28;20253;-78
2021/11/22 10:23:02;;;;;;;2.73;0.70;;;;;;;;;;5111723;28;20204;-78
2021/11/22 10:25:31;;;;;;;1.80;0.67;;;;;;;;;;5113375;28;20296;-78
2021/11/22 10:28:06;;;;;;;3.87;0.90;;;;;;;;;;5116099;28;20193;-78
2021/11/22 10:30:34;;;;;;;2.53;0.70;;;;;;;;;;5116310;28;20239;-78
2021/11/22 10:33:03;;;;;;;2.17;0.50;;;;;;;;;;5115967;28;20247;-78
2021/11/22 10:35:33;;;;;;;1.60;0.57;;;;;;;;;;5116132;28;20257;-78
2021/11/22 10:38:02;;;;;;;10.63;1.03;;;;;;;;;;5096211;28;20209;-78
2021/11/22 10:40:30;;;;;;;2.83;0.70;;;;;;;;;;5116018;28;20620;-78
2021/11/22 10:42:58;;;;;;;1.67;0.70;;;;;;;;;;5116259;28;20280;-78
2021/11/22 10:45:26;;;;;;;3.87;0.80;;;;;;;;;;5116084;28;20280;-78
2021/11/22 10:48:00;;;;;;;2.07;0.80;;;;;;;;;;5115668;28;20289;-78
2021/11/22 10:50:31;;;;;;;3.33;0.60;;;;;;;;;;5115842;28;20215;-78
2021/11/22 10:53:04;;;;;;;2.90;0.70;;;;;;;;;;5114990;28;20221;-78
2021/11/22 10:55:44;;;;;;;4.20;1.17;;;;;;;;;;5115372;28;20222;-78
2021/11/22 10:58:11;;;;;;;2.13;0.50;;;;;;;;;;5115739;28;20305;-78
2021/11/22 11:00:38;;;;;;;2.23;0.60;;;;;;;;;;5115686;28;20297;-78
2021/11/22 11:03:07;;;;;;;1.60;0.50;;;;;;;;;;5115299;28;20745;-78
2021/11/22 11:05:35;;;;;;;2.60;0.67;;;;;;;;;;5115862;28;20641;-78
2021/11/22 11:08:04;;;;;;;3.20;0.70;;;;;;;;;;5115501;28;20198;-78
2021/11/22 11:10:33;;;;;;;2.83;0.90;;;;;;;;;;5115515;28;20293;-78
2021/11/22 11:13:00;;;;;;;1.90;0.70;;;;;;;;;;5115628;28;20197;-78
2021/11/22 11:15:29;;;;;;;2.20;0.70;;;;;;;;;;5115573;28;20320;-78
2021/11/22 11:17:56;;;;;;;2.90;0.70;;;;;;;;;;5115644;28;20205;-78
2021/11/22 11:20:24;;;;;;;2.50;0.80;;;;;;;;;;5113713;28;20324;-78
2021/11/22 11:22:52;;;;;;;2.10;0.80;;;;;;;;;;5113584;28;20194;-78
2021/11/22 11:25:22;;;;;;;2.13;0.73;;;;;;;;;;5113293;28;20677;-78
2021/11/22 11:27:49;;;;;;;2.63;1.00;;;;;;;;;;5113790;28;20288;-78
2021/11/22 11:30:19;;;;;;;1.57;0.80;;;;;;;;;;5113731;28;20720;-78
2021/11/22 11:32:47;;;;;;;2.60;0.90;;;;;;;;;;5114371;28;20209;-78
2021/11/22 11:35:17;;;;;;;2.33;1.00;;;;;;;;;;5113681;28;20217;-78
2021/11/22 11:37:54;;;;;;;1.53;0.60;;;;;;;;;;5112857;28;20288;-78
2021/11/22 11:40:37;;;;;;;2.80;0.73;;;;;;;;;;5112803;28;20229;-78
2021/11/22 11:43:15;;;;;;;2.83;0.87;;;;;;;;;;5113694;28;20202;-78
2021/11/22 11:45:44;;;;;;;1.87;0.87;;;;;;;;;;5114059;28;20288;-77
2021/11/22 11:48:17;;;;;;;1.67;0.80;;;;;;;;;;5113677;28;20247;-78
2021/11/22 11:50:45;;;;;;;2.23;1.00;;;;;;;;;;5113602;28;20288;-78
2021/11/22 11:53:14;;;;;;;1.70;0.90;;;;;;;;;;5113330;28;20730;-78
2021/11/22 11:55:43;;;;;;;2.50;0.60;;;;;;;;;;5113524;28;20252;-78
2021/11/22 11:58:19;;;;;;;1.57;0.70;;;;;;;;;;5112865;28;20640;-77
2021/11/22 12:00:54;;;;;;;2.07;0.80;;;;;;;;;;5113710;28;20288;-78
2021/11/22 12:03:22;;;;;;;3.90;0.97;;;;;;;;;;5113236;28;20201;-78
2021/11/22 12:05:50;;;;;;;2.50;0.90;;;;;;;;;;5113477;28;20280;-78
2021/11/22 12:08:21;;;;;;;2.30;0.80;;;;;;;;;;5112795;28;20288;-78
2021/11/22 12:10:50;;;;;;;2.57;0.73;;;;;;;;;;5113414;28;20237;-78
2021/11/22 12:13:17;;;;;;;1.57;0.80;;;;;;;;;;5112780;28;20198;-78
2021/11/22 12:15:46;;;;;;;1.47;0.80;;;;;;;;;;5113409;28;20332;-78
2021/11/22 12:18:13;;;;;;;1.20;0.60;;;;;;;;;;5062193;28;1447569;-78
2021/11/22 12:20:42;;;;;;;2.13;0.60;;;;;;;;;;5114049;28;20229;-78
2021/11/22 12:23:11;;;;;;;1.53;0.80;;;;;;;;;;5114420;28;20253;-78
2021/11/22 12:25:43;;;;;;;2.33;0.90;;;;;;;;;;5114002;28;20281;-78
2021/11/22 12:28:15;;;;;;;3.07;0.70;;;;;;;;;;5113996;28;20194;-78
2021/11/22 12:30:43;;;;;;;1.90;0.90;;;;;;;;;;5113904;28;20202;-78
2021/11/22 12:33:28;;;;;;;2.40;0.77;;;;;;;;;;5114657;28;20229;-78
2021/11/22 12:35:57;;;;;;;2.33;0.80;;;;;;;;;;5113844;28;20318;-78
2021/11/22 12:38:25;;;;;;;2.10;0.90;;;;;;;;;;5114026;28;20209;-77
2021/11/22 12:40:53;;;;;;;1.63;0.67;;;;;;;;;;5114219;28;20236;-77
2021/11/22 12:43:36;;;;;;;1.50;0.70;;;;;;;;;;5114231;28;20285;-78
2021/11/22 12:46:05;;;;;;;2.00;0.83;;;;;;;;;;5113990;28;20281;-78
2021/11/22 12:48:32;;;;;;;1.90;1.00;;;;;;;;;;5113041;28;20198;-78
2021/11/22 12:51:01;;;;;;;2.97;0.93;;;;;;;;;;5113673;28;20294;-78
2021/11/22 12:53:28;;;;;;;2.07;0.90;;;;;;;;;;5113739;28;20620;-78
2021/11/22 12:55:56;;;;;;;1.60;0.77;;;;;;;;;;5113240;28;20296;-77
2021/11/22 12:58:24;;;;;;;2.60;0.90;;;;;;;;;;5113649;28;20289;-78
2021/11/22 13:00:55;;;;;;;1.63;1.00;;;;;;;;;;5112884;28;20642;-78
2021/11/22 13:03:24;;;;;;;2.17;1.00;;;;;;;;;;5113471;28;20247;-78
2021/11/22 13:06:01;;;;;;;1.77;0.90;;;;;;;;;;5113062;28;20310;-77
2021/11/22 13:08:39;;;;;;;1.93;0.90;;;;;;;;;;5113254;28;20288;-78
2021/11/22 13:11:07;;;;;;;2.33;1.00;;;;;;;;;;5113214;28;20255;-78
2021/11/22 13:13:42;;;;;;;1.73;0.93;;;;;;;;;;5112844;28;20197;-78
2021/11/22 13:16:13;;;;;;;1.87;1.00;;;;;;;;;;5113123;28;20257;-78
2021/11/22 13:18:45;;;;;;;2.40;0.90;;;;;;;;;;5112428;28;20233;-77
2021/11/22 13:21:13;;;;;;;2.37;1.07;;;;;;;;;;5113167;28;20284;-78
2021/11/22 13:23:41;;;;;;;2.13;1.00;;;;;;;;;;5112860;28;20197;-78
2021/11/22 13:26:11;;;;;;;1.63;0.93;;;;;;;;;;5113219;28;20292;-78
2021/11/22 13:28:45;;;;;;;2.57;1.20;;;;;;;;;;5112639;28;20201;-78
2021/11/22 13:31:12;;;;;;;3.67;0.97;;;;;;;;;;5112821;28;20668;-77
2021/11/22 13:33:40;;;;;;;3.27;1.17;;;;;;;;;;5112037;28;20707;-78
2021/11/22 13:36:09;;;;;;;5.13;1.23;;;;;;;;;;5112580;28;20728;-78
2021/11/22 13:38:40;;;;;;;2.53;1.07;;;;;;;;;;5112722;28;20297;-78
2021/11/22 13:41:12;;;;;;;3.30;1.30;;;;;;;;;;5112781;28;20704;-78
2021/11/22 13:43:40;;;;;;;2.53;1.37;;;;;;;;;;5112695;28;20280;-78
2021/11/22 13:46:08;;;;;;;3.07;1.23;;;;;;;;;;5112825;28;20204;-78
2021/11/22 13:48:54;;;;;;;3.43;1.20;;;;;;;;;;5112197;28;20194;-78
2021/11/22 13:51:25;;;;;;;2.37;1.00;;;;;;;;;;5111972;28;20289;-77
2021/11/22 13:53:53;;;;;;;2.23;1.30;;;;;;;;;;5112188;28;20233;-78
2021/11/22 13:56:21;;;;;;;2.60;1.20;;;;;;;;;;5112065;28;20740;-78
2021/11/22 13:58:48;;;;;;;2.33;1.00;;;;;;;;;;5112408;28;20262;-78
2021/11/22 14:01:15;;;;;;;1.60;0.93;;;;;;;;;;5112153;28;20639;-78
2021/11/22 14:03:43;;;;;;;2.53;1.33;;;;;;;;;;5112028;28;20289;-77
2021/11/22 14:06:10;;;;;;;2.63;1.30;;;;;;;;;;5112276;28;20287;-77
2021/11/22 14:08:39;;;;;;;2.93;1.50;;;;;;;;;;5112289;28;20636;-78
2021/11/22 14:11:19;;;;;;;2.60;1.20;;;;;;;;;;5112110;28;20232;-77
2021/11/22 14:13:46;;;;;;;3.20;1.20;;;;;;;;;;5112201;28;20236;-78
2021/11/22 14:16:16;;;;;;;5.43;1.23;;;;;;;;;;5111997;28;20308;-78
2021/11/22 14:18:43;;;;;;;2.50;1.10;;;;;;;;;;5111830;28;20229;-75
2021/11/22 14:21:10;;;;;;;1.93;1.30;;;;;;;;;;5111513;28;20284;-76
2021/11/22 14:23:39;;;;;;;1.47;1.00;;;;;;;;;;5112007;28;20280;-76
2021/11/22 14:26:08;;;;;;;2.87;1.10;;;;;;;;;;5111378;28;20319;-75
2021/11/22 14:28:42;;;;;;;2.43;1.23;;;;;;;;;;5112445;28;20199;-76
2021/11/22 14:31:09;;;;;;;1.73;1.17;;;;;;;;;;5111969;28;20196;-75
2021/11/22 14:33:37;;;;;;;2.27;1.23;;;;;;;;;;5111865;28;20224;-76
2021/11/22 14:36:05;;;;;;;2.20;1.40;;;;;;;;;;5111232;28;20307;-75
2021/11/22 14:38:33;;;;;;;1.80;1.33;;;;;;;;;;5110507;28;20278;-75
2021/11/22 14:41:16;;;;;;;3.10;1.40;;;;;;;;;;5110191;28;20657;-74
2021/11/22 14:43:46;;;;;;;2.27;1.40;;;;;;;;;;5111620;28;20275;-74
2021/11/22 14:46:17;;;;;;;2.67;1.30;;;;;;;;;;5110841;28;20285;-74
2021/11/22 14:48:45;;;;;;;3.50;1.67;;;;;;;;;;5111699;28;20689;-74
2021/11/22 14:51:13;;;;;;;2.63;1.40;;;;;;;;;;5110343;28;20544;-75